sensor_id;sensor_type;location;lat;lon;timestamp;P1;durP1;ratioP1;P2;durP2;ratioP2
82374;SDS011;72005;50.496;15.798;2023-12-07T00:01:50;45.72;;;22.17;;
82374;SDS011;72005;50.496;15.798;2023-12-07T00:04:15;41.22;;;21.92;;
82374;SDS011;72005;50.496;15.798;2023-12-07T00:06:41;56.13;;;26.90;;
82374;SDS011;72005;50.496;15.798;2023-12-07T00:09:07;67.30;;;28.48;;
82374;SDS011;72005;50.496;15.798;2023-12-07T00:11:32;47.13;;;22.48;;
82374;SDS011;72005;50.496;15.798;2023-12-07T00:13:58;51.90;;;24.98;;
82374;SDS011;72005;50.496;15.798;2023-12-07T00:16:24;46.20;;;22.30;;
82374;SDS011;72005;50.496;15.798;2023-12-07T00:18:50;39.50;;;19.83;;
82374;SDS011;72005;50.496;15.798;2023-12-07T00:21:15;44.38;;;21.40;;
82374;SDS011;72005;50.496;15.798;2023-12-07T00:23:41;37.47;;;19.17;;
82374;SDS011;72005;50.496;15.798;2023-12-07T00:26:07;36.88;;;18.20;;
82374;SDS011;72005;50.496;15.798;2023-12-07T00:28:32;39.22;;;18.80;;
82374;SDS011;72005;50.496;15.798;2023-12-07T00:30:58;38.88;;;19.42;;
82374;SDS011;72005;50.496;15.798;2023-12-07T00:33:24;36.30;;;18.50;;
82374;SDS011;72005;50.496;15.798;2023-12-07T00:35:50;37.13;;;18.45;;
82374;SDS011;72005;50.496;15.798;2023-12-07T00:38:15;36.97;;;18.38;;
82374;SDS011;72005;50.496;15.798;2023-12-07T00:40:41;32.47;;;17.92;;
82374;SDS011;72005;50.496;15.798;2023-12-07T00:43:07;33.05;;;17.17;;
82374;SDS011;72005;50.496;15.798;2023-12-07T00:45:33;32.72;;;17.58;;
82374;SDS011;72005;50.496;15.798;2023-12-07T00:47:58;30.88;;;16.65;;
82374;SDS011;72005;50.496;15.798;2023-12-07T00:50:24;35.80;;;17.67;;
82374;SDS011;72005;50.496;15.798;2023-12-07T00:52:50;37.05;;;18.67;;
82374;SDS011;72005;50.496;15.798;2023-12-07T00:55:16;36.67;;;18.02;;
82374;SDS011;72005;50.496;15.798;2023-12-07T00:57:42;33.83;;;18.00;;
82374;SDS011;72005;50.496;15.798;2023-12-07T01:00:07;37.90;;;17.25;;
82374;SDS011;72005;50.496;15.798;2023-12-07T01:02:35;35.50;;;17.65;;
82374;SDS011;72005;50.496;15.798;2023-12-07T01:05:01;33.60;;;16.70;;
82374;SDS011;72005;50.496;15.798;2023-12-07T01:07:27;38.35;;;18.55;;
82374;SDS011;72005;50.496;15.798;2023-12-07T01:09:53;37.70;;;17.33;;
82374;SDS011;72005;50.496;15.798;2023-12-07T01:12:19;31.40;;;16.50;;
82374;SDS011;72005;50.496;15.798;2023-12-07T01:14:45;35.75;;;16.83;;
82374;SDS011;72005;50.496;15.798;2023-12-07T01:17:11;32.60;;;16.15;;
82374;SDS011;72005;50.496;15.798;2023-12-07T01:19:36;33.55;;;17.23;;
82374;SDS011;72005;50.496;15.798;2023-12-07T01:22:02;34.58;;;16.70;;
82374;SDS011;72005;50.496;15.798;2023-12-07T01:24:28;31.50;;;16.45;;
82374;SDS011;72005;50.496;15.798;2023-12-07T01:26:54;33.70;;;16.30;;
82374;SDS011;72005;50.496;15.798;2023-12-07T01:29:20;31.70;;;15.63;;
82374;SDS011;72005;50.496;15.798;2023-12-07T01:31:46;30.08;;;16.08;;
82374;SDS011;72005;50.496;15.798;2023-12-07T01:34:12;31.88;;;15.52;;
82374;SDS011;72005;50.496;15.798;2023-12-07T01:36:38;30.77;;;15.77;;
82374;SDS011;72005;50.496;15.798;2023-12-07T01:39:03;38.05;;;16.70;;
82374;SDS011;72005;50.496;15.798;2023-12-07T01:41:30;32.33;;;15.65;;
82374;SDS011;72005;50.496;15.798;2023-12-07T01:43:56;30.20;;;15.43;;
82374;SDS011;72005;50.496;15.798;2023-12-07T01:46:22;38.30;;;17.90;;
82374;SDS011;72005;50.496;15.798;2023-12-07T01:48:48;37.53;;;17.30;;
82374;SDS011;72005;50.496;15.798;2023-12-07T01:51:15;39.97;;;17.65;;
82374;SDS011;72005;50.496;15.798;2023-12-07T01:53:43;38.35;;;17.58;;
82374;SDS011;72005;50.496;15.798;2023-12-07T01:56:09;37.13;;;16.10;;
82374;SDS011;72005;50.496;15.798;2023-12-07T01:58:36;38.80;;;17.88;;
82374;SDS011;72005;50.496;15.798;2023-12-07T02:01:02;37.15;;;17.00;;
82374;SDS011;72005;50.496;15.798;2023-12-07T02:03:29;39.38;;;18.38;;
82374;SDS011;72005;50.496;15.798;2023-12-07T02:05:57;32.88;;;16.08;;
82374;SDS011;72005;50.496;15.798;2023-12-07T02:08:24;37.45;;;17.20;;
82374;SDS011;72005;50.496;15.798;2023-12-07T02:10:50;36.75;;;17.23;;
82374;SDS011;72005;50.496;15.798;2023-12-07T02:13:18;39.30;;;17.90;;
82374;SDS011;72005;50.496;15.798;2023-12-07T02:15:45;37.65;;;18.13;;
82374;SDS011;72005;50.496;15.798;2023-12-07T02:21:02;41.45;;;18.60;;
82374;SDS011;72005;50.496;15.798;2023-12-07T02:23:41;34.30;;;16.73;;
82374;SDS011;72005;50.496;15.798;2023-12-07T02:26:08;39.05;;;17.88;;
82374;SDS011;72005;50.496;15.798;2023-12-07T02:28:36;38.75;;;17.98;;
82374;SDS011;72005;50.496;15.798;2023-12-07T02:31:02;39.53;;;18.00;;
82374;SDS011;72005;50.496;15.798;2023-12-07T02:33:28;39.45;;;18.35;;
82374;SDS011;72005;50.496;15.798;2023-12-07T02:35:54;42.88;;;19.92;;
82374;SDS011;72005;50.496;15.798;2023-12-07T02:38:20;39.17;;;17.67;;
82374;SDS011;72005;50.496;15.798;2023-12-07T02:40:51;38.05;;;18.75;;
82374;SDS011;72005;50.496;15.798;2023-12-07T02:43:19;41.60;;;19.30;;
82374;SDS011;72005;50.496;15.798;2023-12-07T02:45:47;42.45;;;20.17;;
82374;SDS011;72005;50.496;15.798;2023-12-07T02:48:13;41.70;;;19.50;;
82374;SDS011;72005;50.496;15.798;2023-12-07T02:50:39;36.70;;;18.65;;
82374;SDS011;72005;50.496;15.798;2023-12-07T02:53:04;42.95;;;18.55;;
82374;SDS011;72005;50.496;15.798;2023-12-07T02:55:30;41.38;;;19.05;;
82374;SDS011;72005;50.496;15.798;2023-12-07T02:57:56;46.17;;;20.42;;
82374;SDS011;72005;50.496;15.798;2023-12-07T03:00:22;36.60;;;18.42;;
82374;SDS011;72005;50.496;15.798;2023-12-07T03:02:47;42.20;;;19.65;;
82374;SDS011;72005;50.496;15.798;2023-12-07T03:05:13;43.97;;;19.67;;
82374;SDS011;72005;50.496;15.798;2023-12-07T03:07:39;43.50;;;21.77;;
82374;SDS011;72005;50.496;15.798;2023-12-07T03:10:05;39.70;;;19.85;;
82374;SDS011;72005;50.496;15.798;2023-12-07T03:12:31;40.00;;;19.38;;
82374;SDS011;72005;50.496;15.798;2023-12-07T03:14:57;42.28;;;19.70;;
82374;SDS011;72005;50.496;15.798;2023-12-07T03:17:23;44.58;;;19.65;;
82374;SDS011;72005;50.496;15.798;2023-12-07T03:19:49;45.33;;;20.08;;
82374;SDS011;72005;50.496;15.798;2023-12-07T03:22:14;37.13;;;19.00;;
82374;SDS011;72005;50.496;15.798;2023-12-07T03:24:43;38.28;;;19.05;;
82374;SDS011;72005;50.496;15.798;2023-12-07T03:27:11;48.78;;;20.42;;
82374;SDS011;72005;50.496;15.798;2023-12-07T03:29:37;45.65;;;21.50;;
82374;SDS011;72005;50.496;15.798;2023-12-07T03:32:03;43.17;;;20.23;;
82374;SDS011;72005;50.496;15.798;2023-12-07T03:34:29;42.72;;;19.65;;
82374;SDS011;72005;50.496;15.798;2023-12-07T03:36:54;39.33;;;19.42;;
82374;SDS011;72005;50.496;15.798;2023-12-07T03:39:20;39.03;;;17.95;;
82374;SDS011;72005;50.496;15.798;2023-12-07T03:41:50;41.40;;;18.85;;
82374;SDS011;72005;50.496;15.798;2023-12-07T03:44:16;44.50;;;20.63;;
82374;SDS011;72005;50.496;15.798;2023-12-07T03:46:42;39.17;;;19.05;;
82374;SDS011;72005;50.496;15.798;2023-12-07T03:49:07;35.92;;;18.95;;
82374;SDS011;72005;50.496;15.798;2023-12-07T03:51:33;39.92;;;18.80;;
82374;SDS011;72005;50.496;15.798;2023-12-07T03:54:02;41.60;;;20.52;;
82374;SDS011;72005;50.496;15.798;2023-12-07T03:56:29;42.67;;;20.55;;
82374;SDS011;72005;50.496;15.798;2023-12-07T03:58:56;41.08;;;20.08;;
82374;SDS011;72005;50.496;15.798;2023-12-07T04:01:22;40.92;;;19.70;;
82374;SDS011;72005;50.496;15.798;2023-12-07T04:03:49;41.72;;;19.67;;
82374;SDS011;72005;50.496;15.798;2023-12-07T04:06:15;38.42;;;19.35;;
82374;SDS011;72005;50.496;15.798;2023-12-07T04:08:42;38.50;;;18.92;;
82374;SDS011;72005;50.496;15.798;2023-12-07T04:11:08;40.05;;;18.88;;
82374;SDS011;72005;50.496;15.798;2023-12-07T04:13:34;40.65;;;18.73;;
82374;SDS011;72005;50.496;15.798;2023-12-07T04:15:59;39.65;;;19.08;;
82374;SDS011;72005;50.496;15.798;2023-12-07T04:18:26;38.85;;;18.92;;
82374;SDS011;72005;50.496;15.798;2023-12-07T04:20:51;33.70;;;17.45;;
82374;SDS011;72005;50.496;15.798;2023-12-07T04:23:17;37.75;;;17.00;;
82374;SDS011;72005;50.496;15.798;2023-12-07T04:25:43;33.65;;;15.63;;
82374;SDS011;72005;50.496;15.798;2023-12-07T04:28:09;27.58;;;13.45;;
82374;SDS011;72005;50.496;15.798;2023-12-07T04:30:34;26.42;;;13.50;;
82374;SDS011;72005;50.496;15.798;2023-12-07T04:33:00;25.20;;;13.55;;
82374;SDS011;72005;50.496;15.798;2023-12-07T04:35:26;21.15;;;11.75;;
82374;SDS011;72005;50.496;15.798;2023-12-07T04:37:54;24.45;;;12.10;;
82374;SDS011;72005;50.496;15.798;2023-12-07T04:40:20;17.90;;;9.68;;
82374;SDS011;72005;50.496;15.798;2023-12-07T04:42:45;16.83;;;9.60;;
82374;SDS011;72005;50.496;15.798;2023-12-07T04:45:11;15.30;;;8.90;;
82374;SDS011;72005;50.496;15.798;2023-12-07T04:47:37;15.82;;;8.73;;
82374;SDS011;72005;50.496;15.798;2023-12-07T04:50:03;12.73;;;7.88;;
82374;SDS011;72005;50.496;15.798;2023-12-07T04:52:29;11.20;;;7.05;;
82374;SDS011;72005;50.496;15.798;2023-12-07T04:54:55;12.80;;;7.55;;
82374;SDS011;72005;50.496;15.798;2023-12-07T04:57:21;11.77;;;6.90;;
82374;SDS011;72005;50.496;15.798;2023-12-07T04:59:46;10.68;;;6.97;;
82374;SDS011;72005;50.496;15.798;2023-12-07T05:02:16;12.48;;;7.18;;
82374;SDS011;72005;50.496;15.798;2023-12-07T05:04:42;12.30;;;7.63;;
82374;SDS011;72005;50.496;15.798;2023-12-07T05:07:08;11.25;;;6.32;;
82374;SDS011;72005;50.496;15.798;2023-12-07T05:09:34;12.25;;;6.70;;
82374;SDS011;72005;50.496;15.798;2023-12-07T05:12:00;10.07;;;6.55;;
82374;SDS011;72005;50.496;15.798;2023-12-07T05:14:26;10.68;;;6.22;;
82374;SDS011;72005;50.496;15.798;2023-12-07T05:16:52;11.00;;;6.50;;
82374;SDS011;72005;50.496;15.798;2023-12-07T05:19:24;8.35;;;5.95;;
82374;SDS011;72005;50.496;15.798;2023-12-07T05:21:51;8.57;;;6.00;;
82374;SDS011;72005;50.496;15.798;2023-12-07T05:24:17;8.52;;;5.95;;
82374;SDS011;72005;50.496;15.798;2023-12-07T05:26:43;9.18;;;6.03;;
82374;SDS011;72005;50.496;15.798;2023-12-07T05:29:13;10.85;;;6.68;;
82374;SDS011;72005;50.496;15.798;2023-12-07T05:31:39;9.25;;;6.05;;
82374;SDS011;72005;50.496;15.798;2023-12-07T05:34:05;10.55;;;6.65;;
82374;SDS011;72005;50.496;15.798;2023-12-07T05:36:32;8.25;;;5.68;;
82374;SDS011;72005;50.496;15.798;2023-12-07T05:38:58;8.00;;;5.07;;
82374;SDS011;72005;50.496;15.798;2023-12-07T05:41:24;7.63;;;5.45;;
82374;SDS011;72005;50.496;15.798;2023-12-07T05:43:51;9.18;;;6.30;;
82374;SDS011;72005;50.496;15.798;2023-12-07T05:46:18;7.95;;;5.55;;
82374;SDS011;72005;50.496;15.798;2023-12-07T05:48:44;8.48;;;5.60;;
82374;SDS011;72005;50.496;15.798;2023-12-07T05:51:14;10.90;;;6.60;;
82374;SDS011;72005;50.496;15.798;2023-12-07T05:53:41;11.32;;;6.95;;
82374;SDS011;72005;50.496;15.798;2023-12-07T05:56:08;10.98;;;7.90;;
82374;SDS011;72005;50.496;15.798;2023-12-07T05:58:34;10.93;;;6.85;;
82374;SDS011;72005;50.496;15.798;2023-12-07T06:01:01;8.52;;;6.07;;
82374;SDS011;72005;50.496;15.798;2023-12-07T06:03:28;11.00;;;7.35;;
82374;SDS011;72005;50.496;15.798;2023-12-07T06:05:55;10.45;;;6.72;;
82374;SDS011;72005;50.496;15.798;2023-12-07T06:08:21;7.22;;;5.30;;
82374;SDS011;72005;50.496;15.798;2023-12-07T06:10:47;8.65;;;6.15;;
82374;SDS011;72005;50.496;15.798;2023-12-07T06:13:13;9.05;;;6.28;;
82374;SDS011;72005;50.496;15.798;2023-12-07T06:15:39;8.05;;;5.70;;
82374;SDS011;72005;50.496;15.798;2023-12-07T06:18:05;7.85;;;5.38;;
82374;SDS011;72005;50.496;15.798;2023-12-07T06:20:31;7.85;;;5.55;;
82374;SDS011;72005;50.496;15.798;2023-12-07T06:22:57;8.52;;;5.75;;
82374;SDS011;72005;50.496;15.798;2023-12-07T06:25:23;7.65;;;5.57;;
82374;SDS011;72005;50.496;15.798;2023-12-07T06:27:49;7.40;;;5.78;;
82374;SDS011;72005;50.496;15.798;2023-12-07T06:30:15;8.23;;;6.15;;
82374;SDS011;72005;50.496;15.798;2023-12-07T06:32:41;9.65;;;6.55;;
82374;SDS011;72005;50.496;15.798;2023-12-07T06:35:07;9.90;;;6.70;;
82374;SDS011;72005;50.496;15.798;2023-12-07T06:37:33;9.38;;;6.72;;
82374;SDS011;72005;50.496;15.798;2023-12-07T06:39:59;11.90;;;6.55;;
82374;SDS011;72005;50.496;15.798;2023-12-07T06:42:28;8.98;;;6.80;;
82374;SDS011;72005;50.496;15.798;2023-12-07T06:44:53;9.20;;;6.43;;
82374;SDS011;72005;50.496;15.798;2023-12-07T06:47:19;10.00;;;6.40;;
82374;SDS011;72005;50.496;15.798;2023-12-07T06:49:45;9.27;;;6.28;;
82374;SDS011;72005;50.496;15.798;2023-12-07T06:52:11;8.85;;;6.57;;
82374;SDS011;72005;50.496;15.798;2023-12-07T06:54:37;9.63;;;6.30;;
82374;SDS011;72005;50.496;15.798;2023-12-07T06:57:06;8.98;;;5.75;;
82374;SDS011;72005;50.496;15.798;2023-12-07T06:59:33;8.68;;;5.97;;
82374;SDS011;72005;50.496;15.798;2023-12-07T07:01:59;9.07;;;6.10;;
82374;SDS011;72005;50.496;15.798;2023-12-07T07:04:25;9.32;;;6.32;;
82374;SDS011;72005;50.496;15.798;2023-12-07T07:06:50;10.40;;;6.35;;
82374;SDS011;72005;50.496;15.798;2023-12-07T07:09:17;8.85;;;6.13;;
82374;SDS011;72005;50.496;15.798;2023-12-07T07:11:51;8.23;;;5.93;;
82374;SDS011;72005;50.496;15.798;2023-12-07T07:14:19;9.85;;;6.43;;
82374;SDS011;72005;50.496;15.798;2023-12-07T07:16:44;7.75;;;5.70;;
82374;SDS011;72005;50.496;15.798;2023-12-07T07:19:10;10.10;;;6.45;;
82374;SDS011;72005;50.496;15.798;2023-12-07T07:21:36;8.15;;;5.22;;
82374;SDS011;72005;50.496;15.798;2023-12-07T07:24:02;8.75;;;6.20;;
82374;SDS011;72005;50.496;15.798;2023-12-07T07:26:28;7.82;;;5.82;;
82374;SDS011;72005;50.496;15.798;2023-12-07T07:28:54;10.05;;;6.20;;
82374;SDS011;72005;50.496;15.798;2023-12-07T07:31:19;8.10;;;5.90;;
82374;SDS011;72005;50.496;15.798;2023-12-07T07:33:45;8.13;;;5.47;;
82374;SDS011;72005;50.496;15.798;2023-12-07T07:36:14;11.68;;;6.75;;
82374;SDS011;72005;50.496;15.798;2023-12-07T07:38:42;9.45;;;6.50;;
82374;SDS011;72005;50.496;15.798;2023-12-07T07:41:09;10.85;;;7.07;;
82374;SDS011;72005;50.496;15.798;2023-12-07T07:43:36;24.90;;;16.00;;
82374;SDS011;72005;50.496;15.798;2023-12-07T07:46:05;10.52;;;7.07;;
82374;SDS011;72005;50.496;15.798;2023-12-07T07:48:31;9.55;;;6.90;;
82374;SDS011;72005;50.496;15.798;2023-12-07T07:50:57;10.07;;;6.28;;
82374;SDS011;72005;50.496;15.798;2023-12-07T07:53:24;11.38;;;6.40;;
82374;SDS011;72005;50.496;15.798;2023-12-07T07:55:49;7.70;;;6.07;;
82374;SDS011;72005;50.496;15.798;2023-12-07T07:58:15;11.25;;;6.97;;
82374;SDS011;72005;50.496;15.798;2023-12-07T08:00:41;9.88;;;6.70;;
82374;SDS011;72005;50.496;15.798;2023-12-07T08:03:07;10.43;;;6.60;;
82374;SDS011;72005;50.496;15.798;2023-12-07T08:05:33;7.10;;;5.80;;
82374;SDS011;72005;50.496;15.798;2023-12-07T08:07:59;8.93;;;6.38;;
82374;SDS011;72005;50.496;15.798;2023-12-07T08:10:24;9.05;;;6.10;;
82374;SDS011;72005;50.496;15.798;2023-12-07T08:12:50;7.70;;;6.07;;
82374;SDS011;72005;50.496;15.798;2023-12-07T08:15:16;7.60;;;5.65;;
82374;SDS011;72005;50.496;15.798;2023-12-07T08:17:42;8.85;;;6.15;;
82374;SDS011;72005;50.496;15.798;2023-12-07T08:20:08;9.57;;;6.40;;
82374;SDS011;72005;50.496;15.798;2023-12-07T08:22:38;9.82;;;5.95;;
82374;SDS011;72005;50.496;15.798;2023-12-07T08:25:04;7.63;;;6.13;;
82374;SDS011;72005;50.496;15.798;2023-12-07T08:27:34;11.68;;;7.93;;
82374;SDS011;72005;50.496;15.798;2023-12-07T08:30:00;10.10;;;6.45;;
82374;SDS011;72005;50.496;15.798;2023-12-07T08:32:26;9.95;;;6.47;;
82374;SDS011;72005;50.496;15.798;2023-12-07T08:34:52;11.75;;;7.00;;
82374;SDS011;72005;50.496;15.798;2023-12-07T08:37:18;10.60;;;6.88;;
82374;SDS011;72005;50.496;15.798;2023-12-07T08:39:44;9.27;;;6.10;;
82374;SDS011;72005;50.496;15.798;2023-12-07T08:42:10;11.90;;;8.05;;
82374;SDS011;72005;50.496;15.798;2023-12-07T08:44:36;14.27;;;8.63;;
82374;SDS011;72005;50.496;15.798;2023-12-07T08:47:03;8.23;;;5.70;;
82374;SDS011;72005;50.496;15.798;2023-12-07T08:49:29;7.70;;;5.82;;
82374;SDS011;72005;50.496;15.798;2023-12-07T08:51:55;9.00;;;5.93;;
82374;SDS011;72005;50.496;15.798;2023-12-07T08:54:21;9.38;;;6.00;;
82374;SDS011;72005;50.496;15.798;2023-12-07T08:56:47;7.97;;;5.78;;
82374;SDS011;72005;50.496;15.798;2023-12-07T08:59:12;9.55;;;6.35;;
82374;SDS011;72005;50.496;15.798;2023-12-07T09:01:38;57.40;;;25.40;;
82374;SDS011;72005;50.496;15.798;2023-12-07T09:04:04;45.78;;;22.17;;
82374;SDS011;72005;50.496;15.798;2023-12-07T09:06:31;28.30;;;14.27;;
82374;SDS011;72005;50.496;15.798;2023-12-07T09:08:56;16.15;;;9.85;;
82374;SDS011;72005;50.496;15.798;2023-12-07T09:11:22;17.98;;;10.35;;
82374;SDS011;72005;50.496;15.798;2023-12-07T09:13:48;9.13;;;6.18;;
82374;SDS011;72005;50.496;15.798;2023-12-07T09:16:14;12.15;;;8.32;;
82374;SDS011;72005;50.496;15.798;2023-12-07T09:18:41;13.98;;;8.85;;
82374;SDS011;72005;50.496;15.798;2023-12-07T09:21:07;7.60;;;5.43;;
82374;SDS011;72005;50.496;15.798;2023-12-07T09:23:32;7.57;;;5.57;;
82374;SDS011;72005;50.496;15.798;2023-12-07T09:26:00;7.97;;;5.13;;
82374;SDS011;72005;50.496;15.798;2023-12-07T09:28:26;8.23;;;5.32;;
82374;SDS011;72005;50.496;15.798;2023-12-07T09:30:52;7.95;;;6.05;;
82374;SDS011;72005;50.496;15.798;2023-12-07T09:33:18;10.90;;;6.78;;
82374;SDS011;72005;50.496;15.798;2023-12-07T09:35:43;10.05;;;6.55;;
82374;SDS011;72005;50.496;15.798;2023-12-07T09:38:09;7.30;;;5.07;;
82374;SDS011;72005;50.496;15.798;2023-12-07T09:40:35;8.05;;;5.43;;
82374;SDS011;72005;50.496;15.798;2023-12-07T09:43:01;8.02;;;5.25;;
82374;SDS011;72005;50.496;15.798;2023-12-07T09:45:27;7.38;;;5.50;;
82374;SDS011;72005;50.496;15.798;2023-12-07T09:47:53;7.93;;;5.90;;
82374;SDS011;72005;50.496;15.798;2023-12-07T09:50:23;6.53;;;4.82;;
82374;SDS011;72005;50.496;15.798;2023-12-07T09:52:50;6.18;;;4.80;;
82374;SDS011;72005;50.496;15.798;2023-12-07T09:55:18;7.47;;;5.30;;
82374;SDS011;72005;50.496;15.798;2023-12-07T09:57:45;8.45;;;5.43;;
82374;SDS011;72005;50.496;15.798;2023-12-07T10:00:12;8.48;;;5.45;;
82374;SDS011;72005;50.496;15.798;2023-12-07T10:02:41;6.47;;;4.80;;
82374;SDS011;72005;50.496;15.798;2023-12-07T10:05:08;7.75;;;5.43;;
82374;SDS011;72005;50.496;15.798;2023-12-07T10:07:42;7.30;;;5.32;;
82374;SDS011;72005;50.496;15.798;2023-12-07T10:10:09;7.10;;;5.22;;
82374;SDS011;72005;50.496;15.798;2023-12-07T10:12:45;10.25;;;5.65;;
82374;SDS011;72005;50.496;15.798;2023-12-07T10:15:18;7.78;;;5.50;;
82374;SDS011;72005;50.496;15.798;2023-12-07T10:20:18;8.45;;;5.93;;
82374;SDS011;72005;50.496;15.798;2023-12-07T10:23:08;7.18;;;5.30;;
82374;SDS011;72005;50.496;15.798;2023-12-07T10:25:35;7.03;;;5.43;;
82374;SDS011;72005;50.496;15.798;2023-12-07T10:28:09;6.28;;;4.97;;
82374;SDS011;72005;50.496;15.798;2023-12-07T10:30:37;12.15;;;7.30;;
82374;SDS011;72005;50.496;15.798;2023-12-07T10:33:05;12.88;;;8.15;;
82374;SDS011;72005;50.496;15.798;2023-12-07T10:35:32;14.77;;;9.18;;
82374;SDS011;72005;50.496;15.798;2023-12-07T10:37:58;14.10;;;9.10;;
82374;SDS011;72005;50.496;15.798;2023-12-07T10:40:25;11.40;;;7.63;;
82374;SDS011;72005;50.496;15.798;2023-12-07T10:42:52;11.05;;;7.70;;
82374;SDS011;72005;50.496;15.798;2023-12-07T10:45:24;13.48;;;8.57;;
82374;SDS011;72005;50.496;15.798;2023-12-07T10:47:51;8.77;;;6.70;;
82374;SDS011;72005;50.496;15.798;2023-12-07T10:50:21;25.55;;;13.68;;
82374;SDS011;72005;50.496;15.798;2023-12-07T10:52:51;50.58;;;26.52;;
82374;SDS011;72005;50.496;15.798;2023-12-07T10:55:21;21.48;;;12.38;;
82374;SDS011;72005;50.496;15.798;2023-12-07T10:57:54;11.65;;;7.43;;
82374;SDS011;72005;50.496;15.798;2023-12-07T11:00:21;11.38;;;7.60;;
82374;SDS011;72005;50.496;15.798;2023-12-07T11:02:54;14.10;;;7.68;;
82374;SDS011;72005;50.496;15.798;2023-12-07T11:05:21;12.90;;;8.18;;
82374;SDS011;72005;50.496;15.798;2023-12-07T11:10:27;14.82;;;9.48;;
82374;SDS011;72005;50.496;15.798;2023-12-07T11:13:08;14.93;;;9.02;;
82374;SDS011;72005;50.496;15.798;2023-12-07T11:15:42;18.95;;;11.57;;
82374;SDS011;72005;50.496;15.798;2023-12-07T11:18:08;14.52;;;8.88;;
82374;SDS011;72005;50.496;15.798;2023-12-07T11:23:10;14.32;;;9.02;;
82374;SDS011;72005;50.496;15.798;2023-12-07T11:25:36;19.50;;;11.90;;
82374;SDS011;72005;50.496;15.798;2023-12-07T11:28:03;14.57;;;9.25;;
82374;SDS011;72005;50.496;15.798;2023-12-07T11:30:31;14.77;;;8.30;;
82374;SDS011;72005;50.496;15.798;2023-12-07T11:32:58;16.95;;;9.50;;
82374;SDS011;72005;50.496;15.798;2023-12-07T11:35:25;15.60;;;9.57;;
82374;SDS011;72005;50.496;15.798;2023-12-07T11:40:45;14.40;;;8.23;;
82374;SDS011;72005;50.496;15.798;2023-12-07T11:43:17;15.43;;;10.15;;
82374;SDS011;72005;50.496;15.798;2023-12-07T11:45:55;15.77;;;8.73;;
82374;SDS011;72005;50.496;15.798;2023-12-07T11:48:21;13.30;;;8.30;;
82374;SDS011;72005;50.496;15.798;2023-12-07T11:51:06;14.45;;;8.90;;
82374;SDS011;72005;50.496;15.798;2023-12-07T11:53:34;12.05;;;8.07;;
82374;SDS011;72005;50.496;15.798;2023-12-07T11:56:02;13.65;;;8.73;;
82374;SDS011;72005;50.496;15.798;2023-12-07T11:58:30;12.65;;;8.43;;
82374;SDS011;72005;50.496;15.798;2023-12-07T12:00:57;13.43;;;8.27;;
82374;SDS011;72005;50.496;15.798;2023-12-07T12:03:24;14.20;;;8.73;;
82374;SDS011;72005;50.496;15.798;2023-12-07T12:05:50;15.25;;;8.80;;
82374;SDS011;72005;50.496;15.798;2023-12-07T12:08:17;12.88;;;8.18;;
82374;SDS011;72005;50.496;15.798;2023-12-07T12:10:44;14.50;;;8.57;;
82374;SDS011;72005;50.496;15.798;2023-12-07T12:13:10;13.60;;;7.78;;
82374;SDS011;72005;50.496;15.798;2023-12-07T12:15:39;13.68;;;8.43;;
82374;SDS011;72005;50.496;15.798;2023-12-07T12:18:05;47.10;;;28.55;;
82374;SDS011;72005;50.496;15.798;2023-12-07T12:20:32;21.67;;;13.52;;
82374;SDS011;72005;50.496;15.798;2023-12-07T12:22:58;17.88;;;9.20;;
82374;SDS011;72005;50.496;15.798;2023-12-07T12:25:26;15.98;;;8.93;;
82374;SDS011;72005;50.496;15.798;2023-12-07T12:27:56;15.77;;;9.20;;
82374;SDS011;72005;50.496;15.798;2023-12-07T12:30:24;14.35;;;7.93;;
82374;SDS011;72005;50.496;15.798;2023-12-07T12:32:50;14.75;;;8.48;;
82374;SDS011;72005;50.496;15.798;2023-12-07T12:35:17;13.98;;;8.50;;
82374;SDS011;72005;50.496;15.798;2023-12-07T12:37:44;12.45;;;7.40;;
82374;SDS011;72005;50.496;15.798;2023-12-07T12:40:11;11.95;;;7.18;;
82374;SDS011;72005;50.496;15.798;2023-12-07T12:42:42;12.45;;;7.88;;
82374;SDS011;72005;50.496;15.798;2023-12-07T12:45:09;13.80;;;8.23;;
82374;SDS011;72005;50.496;15.798;2023-12-07T12:47:38;12.68;;;7.65;;
82374;SDS011;72005;50.496;15.798;2023-12-07T12:50:06;12.18;;;8.20;;
82374;SDS011;72005;50.496;15.798;2023-12-07T12:52:35;12.18;;;7.60;;
82374;SDS011;72005;50.496;15.798;2023-12-07T12:55:02;13.68;;;7.88;;
82374;SDS011;72005;50.496;15.798;2023-12-07T12:57:31;11.38;;;7.55;;
82374;SDS011;72005;50.496;15.798;2023-12-07T12:59:58;13.27;;;8.32;;
82374;SDS011;72005;50.496;15.798;2023-12-07T13:02:25;11.60;;;7.53;;
82374;SDS011;72005;50.496;15.798;2023-12-07T13:04:51;15.32;;;8.45;;
82374;SDS011;72005;50.496;15.798;2023-12-07T13:07:17;13.40;;;8.00;;
82374;SDS011;72005;50.496;15.798;2023-12-07T13:09:43;12.60;;;7.53;;
82374;SDS011;72005;50.496;15.798;2023-12-07T13:12:09;9.15;;;6.38;;
82374;SDS011;72005;50.496;15.798;2023-12-07T13:14:35;9.98;;;6.55;;
82374;SDS011;72005;50.496;15.798;2023-12-07T13:17:03;11.15;;;6.45;;
82374;SDS011;72005;50.496;15.798;2023-12-07T13:19:33;8.45;;;5.75;;
82374;SDS011;72005;50.496;15.798;2023-12-07T13:21:59;10.93;;;6.60;;
82374;SDS011;72005;50.496;15.798;2023-12-07T13:24:26;8.85;;;5.97;;
82374;SDS011;72005;50.496;15.798;2023-12-07T13:26:51;6.60;;;5.10;;
82374;SDS011;72005;50.496;15.798;2023-12-07T13:29:17;9.75;;;6.35;;
82374;SDS011;72005;50.496;15.798;2023-12-07T13:31:42;12.05;;;7.13;;
82374;SDS011;72005;50.496;15.798;2023-12-07T13:34:08;9.52;;;6.03;;
82374;SDS011;72005;50.496;15.798;2023-12-07T13:36:34;9.63;;;6.43;;
82374;SDS011;72005;50.496;15.798;2023-12-07T13:39:01;8.00;;;6.32;;
82374;SDS011;72005;50.496;15.798;2023-12-07T13:41:27;8.55;;;6.28;;
82374;SDS011;72005;50.496;15.798;2023-12-07T13:43:53;10.45;;;6.00;;
82374;SDS011;72005;50.496;15.798;2023-12-07T13:46:19;12.90;;;8.05;;
82374;SDS011;72005;50.496;15.798;2023-12-07T13:48:45;12.18;;;7.75;;
82374;SDS011;72005;50.496;15.798;2023-12-07T13:51:12;11.38;;;7.32;;
82374;SDS011;72005;50.496;15.798;2023-12-07T13:53:38;17.70;;;10.13;;
82374;SDS011;72005;50.496;15.798;2023-12-07T13:56:04;10.43;;;6.68;;
82374;SDS011;72005;50.496;15.798;2023-12-07T13:58:31;8.70;;;6.05;;
82374;SDS011;72005;50.496;15.798;2023-12-07T14:00:56;9.15;;;6.38;;
82374;SDS011;72005;50.496;15.798;2023-12-07T14:03:22;11.50;;;7.10;;
82374;SDS011;72005;50.496;15.798;2023-12-07T14:05:48;9.85;;;7.22;;
82374;SDS011;72005;50.496;15.798;2023-12-07T14:08:14;9.20;;;5.85;;
82374;SDS011;72005;50.496;15.798;2023-12-07T14:10:40;9.88;;;6.15;;
82374;SDS011;72005;50.496;15.798;2023-12-07T14:13:06;9.68;;;6.75;;
82374;SDS011;72005;50.496;15.798;2023-12-07T14:15:33;9.77;;;7.25;;
82374;SDS011;72005;50.496;15.798;2023-12-07T14:18:00;12.35;;;7.50;;
82374;SDS011;72005;50.496;15.798;2023-12-07T14:20:27;9.45;;;6.88;;
82374;SDS011;72005;50.496;15.798;2023-12-07T14:22:56;10.57;;;6.30;;
82374;SDS011;72005;50.496;15.798;2023-12-07T14:25:23;13.13;;;6.72;;
82374;SDS011;72005;50.496;15.798;2023-12-07T14:27:49;12.57;;;7.28;;
82374;SDS011;72005;50.496;15.798;2023-12-07T14:30:15;12.65;;;7.55;;
82374;SDS011;72005;50.496;15.798;2023-12-07T14:32:42;9.95;;;6.57;;